createdAt,value
2023-12-30T00:00:54.041Z,7.36
2023-12-30T00:01:54.082Z,7.37
2023-12-30T00:02:54.008Z,7.36
2023-12-30T00:03:54.024Z,7.36
2023-12-30T00:04:53.960Z,7.34
2023-12-30T00:05:53.995Z,7.36
2023-12-30T00:06:53.964Z,7.34
2023-12-30T00:07:53.957Z,7.33
2023-12-30T00:08:53.900Z,7.33
2023-12-30T00:09:53.975Z,7.33
2023-12-30T00:10:53.885Z,7.34
2023-12-30T00:11:53.895Z,7.39
2023-12-30T00:12:53.895Z,7.45
2023-12-30T00:13:53.860Z,7.44
2023-12-30T00:14:53.836Z,7.45
2023-12-30T00:15:53.891Z,7.42
2023-12-30T00:16:53.826Z,7.45
2023-12-30T00:17:53.908Z,7.45
2023-12-30T00:18:53.869Z,7.42
2023-12-30T00:19:54.775Z,7.47
2023-12-30T00:20:53.767Z,7.47
2023-12-30T00:21:53.848Z,7.50
2023-12-30T00:22:53.741Z,7.50
2023-12-30T00:23:53.765Z,7.48
2023-12-30T00:24:53.784Z,7.48
2023-12-30T00:25:53.711Z,7.50
2023-12-30T00:26:53.701Z,7.47
2023-12-30T00:27:53.729Z,7.44
2023-12-30T00:28:53.665Z,7.41
2023-12-30T00:29:53.677Z,7.41
2023-12-30T00:30:53.850Z,7.37
2023-12-30T00:31:53.657Z,7.36
2023-12-30T00:32:53.769Z,7.34
2023-12-30T00:33:53.787Z,7.33
2023-12-30T00:34:53.649Z,7.32
2023-12-30T00:35:53.629Z,7.32
2023-12-30T00:36:53.637Z,7.33
2023-12-30T00:37:53.619Z,7.33
2023-12-30T00:38:53.588Z,7.30
2023-12-30T00:39:53.685Z,7.29
2023-12-30T00:40:53.568Z,7.30
2023-12-30T00:41:53.529Z,7.33
2023-12-30T00:42:53.578Z,7.39
2023-12-30T00:43:53.513Z,7.39
2023-12-30T00:44:53.541Z,7.51
2023-12-30T00:45:53.611Z,7.52
2023-12-30T00:46:53.478Z,7.55
2023-12-30T00:47:53.670Z,7.57
2023-12-30T00:48:57.350Z,7.58
2023-12-30T00:49:53.511Z,7.60
2023-12-30T00:50:53.452Z,7.63
2023-12-30T00:51:53.428Z,7.66
2023-12-30T00:52:53.442Z,7.67
2023-12-30T00:53:53.456Z,7.70
2023-12-30T00:54:53.413Z,7.70
2023-12-30T00:55:53.374Z,7.73
2023-12-30T00:56:53.371Z,7.74
2023-12-30T00:57:53.805Z,7.70
2023-12-30T00:58:53.380Z,7.74
2023-12-30T00:59:53.349Z,7.77
2023-12-30T01:00:53.422Z,7.79
2023-12-30T01:01:53.317Z,7.84
2023-12-30T01:02:53.361Z,7.85
2023-12-30T01:03:53.353Z,7.88
2023-12-30T01:04:53.394Z,7.88
2023-12-30T01:05:53.258Z,7.86
2023-12-30T01:06:53.281Z,7.86
2023-12-30T01:07:53.256Z,7.88
2023-12-30T01:08:53.266Z,7.85
2023-12-30T01:09:53.332Z,7.86
2023-12-30T01:10:53.201Z,7.86
2023-12-30T01:11:53.201Z,7.85
2023-12-30T01:12:53.235Z,7.91
2023-12-30T01:13:53.178Z,7.92
2023-12-30T01:14:53.207Z,7.95
2023-12-30T01:15:53.183Z,7.94
2023-12-30T01:16:53.176Z,7.96
2023-12-30T01:17:53.226Z,7.91
2023-12-30T01:18:53.375Z,7.89
2023-12-30T01:19:53.311Z,7.85
2023-12-30T01:20:53.087Z,7.84
2023-12-30T01:21:53.134Z,7.82
2023-12-30T01:22:53.102Z,7.82
2023-12-30T01:23:53.056Z,7.85
2023-12-30T01:24:53.098Z,7.84
2023-12-30T01:25:53.026Z,7.84
2023-12-30T01:26:53.040Z,7.82
2023-12-30T01:27:53.029Z,7.79
2023-12-30T01:28:53.025Z,7.81
2023-12-30T01:29:53.001Z,7.81
2023-12-30T01:30:53.093Z,7.77
2023-12-30T01:31:53.065Z,7.76
2023-12-30T01:32:53.030Z,7.71
2023-12-30T01:33:53.033Z,7.67
2023-12-30T01:34:52.996Z,7.70
2023-12-30T01:35:52.954Z,7.70
2023-12-30T01:36:52.978Z,7.71
2023-12-30T01:37:52.926Z,7.70
2023-12-30T01:38:52.927Z,7.73
2023-12-30T01:39:52.892Z,7.71
2023-12-30T01:40:52.984Z,7.70
2023-12-30T01:41:52.884Z,7.70
2023-12-30T01:42:52.904Z,7.76
2023-12-30T01:43:52.823Z,7.77
2023-12-30T01:44:52.818Z,7.79
2023-12-30T01:45:52.873Z,7.82
2023-12-30T01:46:52.806Z,7.76
2023-12-30T01:47:53.014Z,7.77
2023-12-30T01:48:52.957Z,7.77
2023-12-30T01:49:52.852Z,7.74
2023-12-30T01:50:52.785Z,7.74
2023-12-30T01:51:52.774Z,7.74
2023-12-30T01:52:52.742Z,7.76
2023-12-30T01:53:52.700Z,7.71
2023-12-30T01:54:52.755Z,7.70
2023-12-30T01:55:52.703Z,7.69
2023-12-30T01:56:52.705Z,7.71
2023-12-30T01:57:52.734Z,7.74
2023-12-30T01:58:52.996Z,7.79
2023-12-30T01:59:52.689Z,7.79
2023-12-30T02:00:52.801Z,7.76
2023-12-30T02:01:52.744Z,7.73
2023-12-30T02:02:52.644Z,7.73
2023-12-30T02:03:52.715Z,7.74
2023-12-30T02:04:52.648Z,7.73
2023-12-30T02:05:52.750Z,7.77
2023-12-30T02:06:52.610Z,7.73
2023-12-30T02:07:52.549Z,7.73
2023-12-30T02:08:52.548Z,7.69
2023-12-30T02:09:52.549Z,7.66
2023-12-30T02:10:52.619Z,7.62
2023-12-30T02:11:52.494Z,7.58
2023-12-30T02:12:52.687Z,7.60
2023-12-30T02:13:52.471Z,7.58
2023-12-30T02:14:52.510Z,7.57
2023-12-30T02:15:52.533Z,7.54
2023-12-30T02:16:52.480Z,7.54
2023-12-30T02:17:52.589Z,7.52
2023-12-30T02:18:52.602Z,7.52
2023-12-30T02:19:53.429Z,7.51
2023-12-30T02:20:52.446Z,7.50
2023-12-30T02:21:52.550Z,7.47
2023-12-30T02:22:52.376Z,7.51
2023-12-30T02:23:52.474Z,7.48
2023-12-30T02:24:52.502Z,7.48
2023-12-30T02:25:52.368Z,7.48
2023-12-30T02:26:52.334Z,7.48
2023-12-30T02:27:52.348Z,7.48
2023-12-30T02:28:52.306Z,7.45
2023-12-30T02:29:52.293Z,7.50
2023-12-30T02:30:52.344Z,7.51
2023-12-30T02:31:52.351Z,7.54
2023-12-30T02:32:52.362Z,7.52
2023-12-30T02:33:52.318Z,7.51
2023-12-30T02:34:52.316Z,7.51
2023-12-30T02:35:52.241Z,7.48
2023-12-30T02:36:52.255Z,7.48
2023-12-30T02:37:52.192Z,7.47
2023-12-30T02:38:52.192Z,7.48
2023-12-30T02:39:52.254Z,7.45
2023-12-30T02:40:52.200Z,7.47
2023-12-30T02:41:52.153Z,7.48
2023-12-30T02:42:52.148Z,7.47
2023-12-30T02:43:52.115Z,7.47
2023-12-30T02:44:52.126Z,7.50
2023-12-30T02:45:52.148Z,7.48
2023-12-30T02:46:52.123Z,7.47
2023-12-30T02:47:52.288Z,7.48
2023-12-30T02:48:52.213Z,7.51
2023-12-30T02:49:52.098Z,7.52
2023-12-30T02:50:52.081Z,7.52
2023-12-30T02:51:52.116Z,7.54
2023-12-30T02:52:52.069Z,7.54
2023-12-30T02:53:52.033Z,7.51
2023-12-30T02:54:52.022Z,7.51
2023-12-30T02:55:51.999Z,7.48
2023-12-30T02:56:52.004Z,7.45
2023-12-30T02:57:52.056Z,7.41
2023-12-30T02:58:51.975Z,7.42
2023-12-30T02:59:51.947Z,7.39
2023-12-30T03:00:52.035Z,7.44
2023-12-30T03:01:51.958Z,7.42
2023-12-30T03:02:51.945Z,7.42
2023-12-30T03:03:51.945Z,7.42
2023-12-30T03:04:51.975Z,7.42
2023-12-30T03:05:51.923Z,7.41
2023-12-30T03:06:51.949Z,7.41
2023-12-30T03:07:51.844Z,7.39
2023-12-30T03:08:51.858Z,7.41
2023-12-30T03:09:51.882Z,7.39
2023-12-30T03:10:51.887Z,7.37
2023-12-30T03:11:51.834Z,7.39
2023-12-30T03:12:51.827Z,7.41
2023-12-30T03:13:51.792Z,7.39
2023-12-30T03:14:51.770Z,7.37
2023-12-30T03:15:51.822Z,7.37
2023-12-30T03:16:51.744Z,7.39
2023-12-30T03:17:51.816Z,7.44
2023-12-30T03:18:51.821Z,7.48
2023-12-30T03:19:51.813Z,7.44
2023-12-30T03:20:51.742Z,7.41
2023-12-30T03:21:51.706Z,7.36
2023-12-30T03:22:51.712Z,7.33
2023-12-30T03:23:51.669Z,7.32
2023-12-30T03:24:51.789Z,7.29
2023-12-30T03:25:51.668Z,7.29
2023-12-30T03:26:51.641Z,7.26
2023-12-30T03:27:51.659Z,7.24
2023-12-30T03:28:51.658Z,7.23
2023-12-30T03:29:51.606Z,7.21
2023-12-30T03:30:51.667Z,7.23
2023-12-30T03:31:51.601Z,7.26
2023-12-30T03:32:51.597Z,7.32
2023-12-30T03:33:51.634Z,7.27
2023-12-30T03:34:51.580Z,7.24
2023-12-30T03:35:51.523Z,7.24
2023-12-30T03:36:51.654Z,7.24
2023-12-30T03:37:51.585Z,7.24
2023-12-30T03:38:51.526Z,7.24
2023-12-30T03:39:51.499Z,7.24
2023-12-30T03:40:51.482Z,7.26
2023-12-30T03:41:51.469Z,7.29
2023-12-30T03:42:51.513Z,7.26
2023-12-30T03:43:51.451Z,7.27
2023-12-30T03:44:51.438Z,7.24
2023-12-30T03:45:51.434Z,7.24
2023-12-30T03:46:51.419Z,7.27
2023-12-30T03:47:51.439Z,7.24
2023-12-30T03:48:51.548Z,7.21
2023-12-30T03:49:51.564Z,7.23
2023-12-30T03:50:51.381Z,7.23
2023-12-30T03:51:51.390Z,7.30
2023-12-30T03:52:51.378Z,7.33
2023-12-30T03:53:51.340Z,7.30
2023-12-30T03:54:52.907Z,7.27
2023-12-30T03:55:51.386Z,7.24
2023-12-30T03:56:51.340Z,7.19
2023-12-30T03:57:51.320Z,7.18
2023-12-30T03:58:51.278Z,7.21
2023-12-30T03:59:51.255Z,7.27
2023-12-30T04:00:51.340Z,7.27
2023-12-30T04:01:51.291Z,7.27
2023-12-30T04:02:51.300Z,7.24
2023-12-30T04:03:51.242Z,7.26
2023-12-30T04:04:51.225Z,7.23
2023-12-30T04:05:51.204Z,7.23
2023-12-30T04:06:51.223Z,7.24
2023-12-30T04:07:51.195Z,7.19
2023-12-30T04:08:51.165Z,7.24
2023-12-30T04:09:51.176Z,7.24
2023-12-30T04:10:51.156Z,7.21
2023-12-30T04:11:51.205Z,7.21
2023-12-30T04:12:51.232Z,7.26
2023-12-30T04:13:51.132Z,7.27
2023-12-30T04:14:51.097Z,7.29
2023-12-30T04:15:51.128Z,7.32
2023-12-30T04:16:51.103Z,7.32
2023-12-30T04:17:51.097Z,7.27
2023-12-30T04:18:51.109Z,7.33
2023-12-30T04:19:51.130Z,7.30
2023-12-30T04:20:51.018Z,7.29
2023-12-30T04:21:51.105Z,7.24
2023-12-30T04:22:51.060Z,7.29
2023-12-30T04:23:50.980Z,7.32
2023-12-30T04:24:51.023Z,7.33
2023-12-30T04:25:50.967Z,7.34
2023-12-30T04:26:50.954Z,7.33
2023-12-30T04:27:51.012Z,7.33
2023-12-30T04:28:50.966Z,7.32
2023-12-30T04:29:50.896Z,7.32
2023-12-30T04:30:51.048Z,7.26
2023-12-30T04:31:50.981Z,7.26
2023-12-30T04:32:51.012Z,7.30
2023-12-30T04:33:50.999Z,7.32
2023-12-30T04:34:51.200Z,7.27
2023-12-30T04:35:50.835Z,7.27
2023-12-30T04:36:50.860Z,7.27
2023-12-30T04:37:50.851Z,7.24
2023-12-30T04:38:50.815Z,7.27
2023-12-30T04:39:50.802Z,7.24
2023-12-30T04:40:50.827Z,7.24
2023-12-30T04:41:50.764Z,7.19
2023-12-30T04:42:50.850Z,7.21
2023-12-30T04:43:50.733Z,7.21
2023-12-30T04:44:50.748Z,7.15
2023-12-30T04:45:50.751Z,7.18
2023-12-30T04:46:50.770Z,7.18
2023-12-30T04:47:50.804Z,7.18
2023-12-30T04:48:50.733Z,7.19
2023-12-30T04:49:50.709Z,7.12
2023-12-30T04:50:50.671Z,7.09
2023-12-30T04:51:50.694Z,7.05
2023-12-30T04:52:50.654Z,7.05
2023-12-30T04:53:50.631Z,7.04
2023-12-30T04:54:50.651Z,7.04
2023-12-30T04:55:50.659Z,7.00
2023-12-30T04:56:50.605Z,7.00
2023-12-30T04:57:50.612Z,6.99
2023-12-30T04:58:50.553Z,6.97
2023-12-30T04:59:50.574Z,6.94
2023-12-30T05:00:50.625Z,6.97
2023-12-30T05:01:50.555Z,7.00
2023-12-30T05:02:50.566Z,6.97
2023-12-30T05:03:50.551Z,6.96
2023-12-30T05:04:50.502Z,6.99
2023-12-30T05:05:50.565Z,6.99
2023-12-30T05:06:50.526Z,7.01
2023-12-30T05:07:50.470Z,7.05
2023-12-30T05:08:50.441Z,7.04
2023-12-30T05:09:50.450Z,7.05
2023-12-30T05:10:50.463Z,7.08
2023-12-30T05:11:50.428Z,7.12
2023-12-30T05:12:50.525Z,7.09
2023-12-30T05:13:50.417Z,7.07
2023-12-30T05:14:50.383Z,7.07
2023-12-30T05:15:50.477Z,7.05
2023-12-30T05:16:50.357Z,7.07
2023-12-30T05:17:50.529Z,7.07
2023-12-30T05:18:50.576Z,7.05
2023-12-30T05:19:50.397Z,7.08
2023-12-30T05:20:50.313Z,7.07
2023-12-30T05:21:50.326Z,7.05
2023-12-30T05:22:50.278Z,7.07
2023-12-30T05:23:50.359Z,7.11
2023-12-30T05:24:50.307Z,7.11
2023-12-30T05:25:50.264Z,7.12
2023-12-30T05:26:50.294Z,7.09
2023-12-30T05:27:50.292Z,7.04
2023-12-30T05:28:50.226Z,7.01
2023-12-30T05:29:50.294Z,7.01
2023-12-30T05:30:50.277Z,7.00
2023-12-30T05:31:50.341Z,7.05
2023-12-30T05:32:50.203Z,7.00
2023-12-30T05:33:50.240Z,6.99
2023-12-30T05:34:50.156Z,6.96
2023-12-30T05:35:50.125Z,6.90
2023-12-30T05:36:50.128Z,6.89
2023-12-30T05:37:50.137Z,6.91
2023-12-30T05:38:50.124Z,6.93
2023-12-30T05:39:50.130Z,6.93
2023-12-30T05:40:50.067Z,6.91
2023-12-30T05:41:50.060Z,6.89
2023-12-30T05:42:50.110Z,6.86
2023-12-30T05:43:50.064Z,6.86
2023-12-30T05:44:50.019Z,6.89
2023-12-30T05:45:50.120Z,6.90
2023-12-30T05:46:49.997Z,6.93
2023-12-30T05:47:50.135Z,6.91
2023-12-30T05:48:49.986Z,6.91
2023-12-30T05:49:50.011Z,6.89
2023-12-30T05:50:49.946Z,6.90
2023-12-30T05:51:50.011Z,6.94
2023-12-30T05:52:49.975Z,6.96
2023-12-30T05:53:49.903Z,6.91
2023-12-30T05:54:49.935Z,6.90
2023-12-30T05:55:49.889Z,6.87
2023-12-30T05:56:49.880Z,6.82
2023-12-30T05:57:49.953Z,6.81
2023-12-30T05:58:49.843Z,6.79
2023-12-30T05:59:49.857Z,6.72
2023-12-30T06:00:49.905Z,6.75
2023-12-30T06:01:49.931Z,6.69
2023-12-30T06:02:49.841Z,6.65
2023-12-30T06:03:49.842Z,6.60
2023-12-30T06:04:49.857Z,6.54
2023-12-30T06:05:49.849Z,6.51
2023-12-30T06:06:49.766Z,6.46
2023-12-30T06:07:49.780Z,6.45
2023-12-30T06:08:49.775Z,6.42
2023-12-30T06:09:49.738Z,6.50
2023-12-30T06:10:49.743Z,6.51
2023-12-30T06:11:49.735Z,6.48
2023-12-30T06:12:49.720Z,6.48
2023-12-30T06:13:49.733Z,6.45
2023-12-30T06:14:49.702Z,6.50
2023-12-30T06:15:49.676Z,6.51
2023-12-30T06:16:49.653Z,6.46
2023-12-30T06:17:49.682Z,6.48
2023-12-30T06:18:49.736Z,6.43
2023-12-30T06:19:49.696Z,6.40
2023-12-30T06:20:49.609Z,6.39
2023-12-30T06:21:49.603Z,6.39
2023-12-30T06:22:49.602Z,6.36
2023-12-30T06:23:49.620Z,6.36
2023-12-30T06:24:49.575Z,6.36
2023-12-30T06:25:49.576Z,6.38
2023-12-30T06:26:49.534Z,6.36
2023-12-30T06:27:49.558Z,6.35
2023-12-30T06:28:49.762Z,6.32
2023-12-30T06:29:49.538Z,6.27
2023-12-30T06:30:49.531Z,6.27
2023-12-30T06:31:49.524Z,6.25
2023-12-30T06:32:49.649Z,6.24
2023-12-30T06:33:49.563Z,6.25
2023-12-30T06:34:49.459Z,6.17
2023-12-30T06:35:49.456Z,6.13
2023-12-30T06:36:49.513Z,6.10
2023-12-30T06:37:49.466Z,6.08
2023-12-30T06:38:49.430Z,6.03
2023-12-30T06:39:49.448Z,6.02
2023-12-30T06:40:49.425Z,6.05
2023-12-30T06:41:49.424Z,6.03
2023-12-30T06:42:49.398Z,6.03
2023-12-30T06:43:49.448Z,6.03
2023-12-30T06:44:49.380Z,5.98
2023-12-30T06:45:49.376Z,5.98
2023-12-30T06:46:49.345Z,5.98
2023-12-30T06:47:49.379Z,5.99
2023-12-30T06:48:49.387Z,5.98
2023-12-30T06:49:49.396Z,5.95
2023-12-30T06:50:49.359Z,5.96
2023-12-30T06:51:49.294Z,6.06
2023-12-30T06:52:49.262Z,6.10
2023-12-30T06:53:49.250Z,6.13
2023-12-30T06:54:58.893Z,6.11
2023-12-30T06:55:49.289Z,6.10
2023-12-30T06:56:49.221Z,6.06
2023-12-30T06:57:49.200Z,6.08
2023-12-30T06:58:49.182Z,6.03
2023-12-30T06:59:49.183Z,6.05
2023-12-30T07:00:49.235Z,6.03
2023-12-30T07:01:49.239Z,6.01
2023-12-30T07:02:49.211Z,6.05
2023-12-30T07:03:49.149Z,6.03
2023-12-30T07:04:49.149Z,6.02
2023-12-30T07:05:49.140Z,5.98
2023-12-30T07:06:49.101Z,5.95
2023-12-30T07:07:49.119Z,5.92
2023-12-30T07:08:49.073Z,5.92
2023-12-30T07:09:49.066Z,5.92
2023-12-30T07:10:49.088Z,5.96
2023-12-30T07:11:49.057Z,5.96
2023-12-30T07:12:49.043Z,5.93
2023-12-30T07:13:49.051Z,5.93
2023-12-30T07:14:49.041Z,5.96
2023-12-30T07:15:49.090Z,5.96
2023-12-30T07:16:49.010Z,5.92
2023-12-30T07:17:49.022Z,5.87
2023-12-30T07:18:49.038Z,5.85
2023-12-30T07:19:48.969Z,5.80
2023-12-30T07:20:48.964Z,5.78
2023-12-30T07:21:48.978Z,5.77
2023-12-30T07:22:48.922Z,5.77
2023-12-30T07:23:48.919Z,5.78
2023-12-30T07:24:48.905Z,5.77
2023-12-30T07:25:48.924Z,5.78
2023-12-30T07:26:48.865Z,5.80
2023-12-30T07:27:48.868Z,5.83
2023-12-30T07:28:48.882Z,5.85
2023-12-30T07:29:48.845Z,5.85
2023-12-30T07:30:48.904Z,5.84
2023-12-30T07:31:48.905Z,5.87
2023-12-30T07:32:48.875Z,5.88
2023-12-30T07:33:49.006Z,5.95
2023-12-30T07:34:48.830Z,5.99
2023-12-30T07:35:48.817Z,5.99
2023-12-30T07:36:48.768Z,5.99
2023-12-30T07:37:48.759Z,6.01
2023-12-30T07:38:48.726Z,5.98
2023-12-30T07:39:48.751Z,5.96
2023-12-30T07:40:48.741Z,5.95
2023-12-30T07:41:48.718Z,5.99
2023-12-30T07:42:48.688Z,5.99
2023-12-30T07:43:48.735Z,6.01
2023-12-30T07:44:48.684Z,5.98
2023-12-30T07:45:48.700Z,6.01
2023-12-30T07:46:48.719Z,6.02
2023-12-30T07:47:48.660Z,6.01
2023-12-30T07:48:48.679Z,6.01
2023-12-30T07:49:48.859Z,6.01
2023-12-30T07:50:48.590Z,5.99
2023-12-30T07:51:48.648Z,5.96
2023-12-30T07:52:48.627Z,5.99
2023-12-30T07:53:48.628Z,5.96
2023-12-30T07:54:48.590Z,5.95
2023-12-30T07:55:48.572Z,5.95
2023-12-30T07:56:48.558Z,5.93
2023-12-30T07:57:48.519Z,5.98
2023-12-30T07:58:48.520Z,6.02
2023-12-30T07:59:48.559Z,6.05
2023-12-30T08:00:48.741Z,6.05
2023-12-30T08:01:48.560Z,6.02
2023-12-30T08:02:48.481Z,6.02
2023-12-30T08:03:48.480Z,5.96
2023-12-30T08:04:48.528Z,5.96
2023-12-30T08:05:48.575Z,5.93
2023-12-30T08:06:48.502Z,5.95
2023-12-30T08:07:48.478Z,5.93
2023-12-30T08:08:48.414Z,5.95
2023-12-30T08:09:48.488Z,5.96
2023-12-30T08:10:48.376Z,5.95
2023-12-30T08:11:58.247Z,5.95
2023-12-30T08:12:48.341Z,5.95
2023-12-30T08:13:48.419Z,5.98
2023-12-30T08:14:48.328Z,5.99
2023-12-30T08:15:48.332Z,5.98
2023-12-30T08:16:48.382Z,5.96
2023-12-30T08:17:48.412Z,5.95
2023-12-30T08:18:48.407Z,5.99
2023-12-30T08:19:48.299Z,5.95
2023-12-30T08:20:48.252Z,5.93
2023-12-30T08:21:48.282Z,5.93
2023-12-30T08:22:48.250Z,5.96
2023-12-30T08:23:48.281Z,5.98
2023-12-30T08:24:48.232Z,5.99
2023-12-30T08:25:48.217Z,6.01
2023-12-30T08:26:48.178Z,6.06
2023-12-30T08:27:48.202Z,6.03
2023-12-30T08:28:48.169Z,6.01
2023-12-30T08:29:48.175Z,6.03
2023-12-30T08:30:48.222Z,6.02
2023-12-30T08:31:48.263Z,6.05
2023-12-30T08:32:48.156Z,6.01
2023-12-30T08:33:48.174Z,6.03
2023-12-30T08:34:48.151Z,6.02
2023-12-30T08:35:48.083Z,6.08
2023-12-30T08:36:48.076Z,6.06
2023-12-30T08:37:48.089Z,6.03
2023-12-30T08:38:48.051Z,6.02
2023-12-30T08:39:48.077Z,6.03
2023-12-30T08:40:48.108Z,6.02
2023-12-30T08:41:48.013Z,6.01
2023-12-30T08:42:48.023Z,6.01
2023-12-30T08:43:48.030Z,6.03
2023-12-30T08:44:48.013Z,6.05
2023-12-30T08:45:48.028Z,6.06
2023-12-30T08:46:48.033Z,6.14
2023-12-30T08:47:48.234Z,6.19
2023-12-30T08:48:47.990Z,6.24
2023-12-30T08:49:48.009Z,6.25
2023-12-30T08:50:47.922Z,6.21
2023-12-30T08:51:48.005Z,6.21
2023-12-30T08:52:47.915Z,6.24
2023-12-30T08:53:47.925Z,6.21
2023-12-30T08:54:47.874Z,6.19
2023-12-30T08:55:47.920Z,6.25
2023-12-30T08:56:47.861Z,6.27
2023-12-30T08:57:47.870Z,6.33
2023-12-30T08:58:47.845Z,6.36
2023-12-30T08:59:47.831Z,6.32
2023-12-30T09:00:47.883Z,6.36
2023-12-30T09:01:47.852Z,6.35
2023-12-30T09:02:47.873Z,6.32
2023-12-30T09:03:47.935Z,6.28
2023-12-30T09:04:47.841Z,6.33
2023-12-30T09:05:47.888Z,6.35
2023-12-30T09:06:47.765Z,6.38
2023-12-30T09:07:47.767Z,6.40
2023-12-30T09:08:47.739Z,6.46
2023-12-30T09:09:47.713Z,6.53
2023-12-30T09:10:47.774Z,6.51
2023-12-30T09:11:47.707Z,6.53
2023-12-30T09:12:47.701Z,6.58
2023-12-30T09:13:47.720Z,6.61
2023-12-30T09:14:47.673Z,6.63
2023-12-30T09:15:47.681Z,6.63
2023-12-30T09:16:47.792Z,6.68
2023-12-30T09:17:47.823Z,6.69
2023-12-30T09:18:47.970Z,6.64
2023-12-30T09:19:47.653Z,6.64
2023-12-30T09:20:47.619Z,6.63
2023-12-30T09:21:47.584Z,6.63
2023-12-30T09:22:47.595Z,6.65
2023-12-30T09:23:47.553Z,6.69
2023-12-30T09:24:47.577Z,6.71
2023-12-30T09:25:47.563Z,6.69
2023-12-30T09:26:47.561Z,6.71
2023-12-30T09:27:48.124Z,6.68
2023-12-30T09:28:47.508Z,6.69
2023-12-30T09:29:47.489Z,6.71
2023-12-30T09:30:47.584Z,6.73
2023-12-30T09:31:47.491Z,6.73
2023-12-30T09:32:47.507Z,6.75
2023-12-30T09:33:47.481Z,6.73
2023-12-30T09:34:47.531Z,6.73
2023-12-30T09:35:47.479Z,6.73
2023-12-30T09:36:47.444Z,6.71
2023-12-30T09:37:47.398Z,6.71
2023-12-30T09:38:47.428Z,6.71
2023-12-30T09:39:47.387Z,6.72
2023-12-30T09:40:47.425Z,6.75
2023-12-30T09:41:47.375Z,6.75
2023-12-30T09:42:47.350Z,6.75
2023-12-30T09:43:47.350Z,6.75
2023-12-30T09:44:47.428Z,6.73
2023-12-30T09:45:47.319Z,6.76
2023-12-30T09:46:47.447Z,6.78
2023-12-30T09:47:47.582Z,6.76
2023-12-30T09:48:47.339Z,6.75
2023-12-30T09:49:47.298Z,6.71
2023-12-30T09:50:47.264Z,6.72
2023-12-30T09:51:47.257Z,6.75
2023-12-30T09:52:47.254Z,6.75
2023-12-30T09:53:47.213Z,6.73
2023-12-30T09:54:49.510Z,6.75
2023-12-30T09:55:47.192Z,6.73
2023-12-30T09:56:47.206Z,6.76
2023-12-30T09:57:47.184Z,6.78
2023-12-30T09:58:47.197Z,6.82
2023-12-30T09:59:47.150Z,6.86
2023-12-30T10:00:47.176Z,6.87
2023-12-30T10:01:47.201Z,6.90
2023-12-30T10:02:47.160Z,6.91
2023-12-30T10:03:47.133Z,6.94
2023-12-30T10:04:47.101Z,6.96
2023-12-30T10:05:47.295Z,6.97
2023-12-30T10:06:47.087Z,6.99
2023-12-30T10:07:47.078Z,7.01
2023-12-30T10:08:47.069Z,7.01
2023-12-30T10:09:47.040Z,7.07
2023-12-30T10:10:47.020Z,7.04
2023-12-30T10:11:47.062Z,7.04
2023-12-30T10:12:47.026Z,7.04
2023-12-30T10:13:46.999Z,7.04
2023-12-30T10:14:46.985Z,7.04
2023-12-30T10:15:46.958Z,7.05
2023-12-30T10:16:46.999Z,7.09
2023-12-30T10:17:47.015Z,7.08
2023-12-30T10:18:47.021Z,7.09
2023-12-30T10:19:46.933Z,7.09
2023-12-30T10:20:46.958Z,7.11
2023-12-30T10:21:46.887Z,7.09
2023-12-30T10:22:46.866Z,7.11
2023-12-30T10:23:46.876Z,7.14
2023-12-30T10:24:46.860Z,7.15
2023-12-30T10:25:46.900Z,7.18
2023-12-30T10:26:46.829Z,7.19
2023-12-30T10:27:46.835Z,7.21
2023-12-30T10:28:46.857Z,7.21
2023-12-30T10:29:51.455Z,7.24
2023-12-30T10:30:46.854Z,7.26
2023-12-30T10:31:46.826Z,7.26
2023-12-30T10:32:46.783Z,7.29
2023-12-30T10:33:46.808Z,7.29
2023-12-30T10:34:46.791Z,7.30
2023-12-30T10:35:46.790Z,7.33
2023-12-30T10:36:46.704Z,7.34
2023-12-30T10:37:46.719Z,7.34
2023-12-30T10:38:46.756Z,7.37
2023-12-30T10:39:46.705Z,7.39
2023-12-30T10:40:47.722Z,7.37
2023-12-30T10:41:46.673Z,7.37
2023-12-30T10:42:46.672Z,7.41
2023-12-30T10:43:46.715Z,7.41
2023-12-30T10:44:46.647Z,7.41
2023-12-30T10:45:46.652Z,7.41
2023-12-30T10:46:46.596Z,7.44
2023-12-30T10:47:46.590Z,7.45
2023-12-30T10:48:46.587Z,7.44
2023-12-30T10:49:46.633Z,7.45
2023-12-30T10:50:46.582Z,7.45
2023-12-30T10:51:46.535Z,7.45
2023-12-30T10:52:46.545Z,7.47
2023-12-30T10:53:46.530Z,7.44
2023-12-30T10:54:46.523Z,7.45
2023-12-30T10:55:46.574Z,7.44
2023-12-30T10:56:46.486Z,7.45
2023-12-30T10:57:46.472Z,7.47
2023-12-30T10:58:46.540Z,7.48
2023-12-30T10:59:46.511Z,7.45
2023-12-30T11:00:46.506Z,7.50
2023-12-30T11:01:46.462Z,7.51
2023-12-30T11:02:46.442Z,7.52
2023-12-30T11:03:46.458Z,7.55
2023-12-30T11:04:46.454Z,7.54
2023-12-30T11:05:46.484Z,7.54
2023-12-30T11:06:46.457Z,7.58
2023-12-30T11:07:46.425Z,7.55
2023-12-30T11:08:46.371Z,7.57
2023-12-30T11:09:46.333Z,7.58
2023-12-30T11:10:46.608Z,7.63
2023-12-30T11:11:46.299Z,7.62
2023-12-30T11:12:46.315Z,7.63
2023-12-30T11:13:46.334Z,7.66
2023-12-30T11:14:46.324Z,7.66
2023-12-30T11:15:46.259Z,7.66
2023-12-30T11:16:46.408Z,7.69
2023-12-30T11:17:46.350Z,7.69
2023-12-30T11:18:46.289Z,7.69
2023-12-30T11:19:46.248Z,7.67
2023-12-30T11:20:46.340Z,7.67
2023-12-30T11:21:46.204Z,7.67
2023-12-30T11:22:46.248Z,7.71
2023-12-30T11:23:46.192Z,7.70
2023-12-30T11:24:46.162Z,7.71
2023-12-30T11:25:46.193Z,7.73
2023-12-30T11:26:47.144Z,7.74
2023-12-30T11:27:46.150Z,7.74
2023-12-30T11:28:46.172Z,7.76
2023-12-30T11:29:46.104Z,7.77
2023-12-30T11:30:46.158Z,7.79
2023-12-30T11:31:46.368Z,7.81
2023-12-30T11:32:46.148Z,7.81
2023-12-30T11:33:46.198Z,7.84
2023-12-30T11:34:46.096Z,7.84
2023-12-30T11:35:46.040Z,7.84
2023-12-30T11:36:46.067Z,7.86
2023-12-30T11:37:46.129Z,7.89
2023-12-30T11:38:46.093Z,7.88
2023-12-30T11:39:45.991Z,7.86
2023-12-30T11:40:46.024Z,7.88
2023-12-30T11:41:46.009Z,7.89
2023-12-30T11:42:48.446Z,7.91
2023-12-30T11:43:46.082Z,7.88
2023-12-30T11:44:45.958Z,7.91
2023-12-30T11:45:45.931Z,7.89
2023-12-30T11:46:45.954Z,7.89
2023-12-30T11:47:45.978Z,7.88
2023-12-30T11:48:45.980Z,7.91
2023-12-30T11:49:45.925Z,7.92
2023-12-30T11:50:45.920Z,7.92
2023-12-30T11:51:45.861Z,7.92
2023-12-30T11:52:45.887Z,7.94
2023-12-30T11:53:45.833Z,7.94
2023-12-30T11:54:45.862Z,7.95
2023-12-30T11:55:45.862Z,7.95
2023-12-30T11:56:45.821Z,7.94
2023-12-30T11:57:45.883Z,7.94
2023-12-30T11:58:45.840Z,7.96
2023-12-30T11:59:45.805Z,7.95
2023-12-30T12:00:45.801Z,7.95
2023-12-30T12:01:47.933Z,7.91
2023-12-30T12:02:45.765Z,7.92
2023-12-30T12:03:45.755Z,7.89
2023-12-30T12:04:45.841Z,7.88
2023-12-30T12:05:45.750Z,7.89
2023-12-30T12:06:45.705Z,7.89
2023-12-30T12:07:45.737Z,7.91
2023-12-30T12:08:45.717Z,7.92
2023-12-30T12:09:45.666Z,7.91
2023-12-30T12:10:45.696Z,7.91
2023-12-30T12:11:45.644Z,7.91
2023-12-30T12:12:45.631Z,7.94
2023-12-30T12:13:45.760Z,7.95
2023-12-30T12:14:45.631Z,7.96
2023-12-30T12:15:45.622Z,7.96
2023-12-30T12:16:45.648Z,8.00
2023-12-30T12:17:45.752Z,8.02
2023-12-30T12:18:45.697Z,8.03
2023-12-30T12:19:45.633Z,8.03
2023-12-30T12:20:45.552Z,8.06
2023-12-30T12:21:45.532Z,8.06
2023-12-30T12:22:45.515Z,8.06
2023-12-30T12:23:45.512Z,8.06
2023-12-30T12:24:45.540Z,8.04
2023-12-30T12:25:45.568Z,8.04
2023-12-30T12:26:45.477Z,8.04
2023-12-30T12:27:45.446Z,8.03
2023-12-30T12:28:45.586Z,8.03
2023-12-30T12:29:45.464Z,8.03
2023-12-30T12:30:45.478Z,8.03
2023-12-30T12:31:45.489Z,8.03
2023-12-30T12:32:45.430Z,8.03
2023-12-30T12:33:45.621Z,8.04
2023-12-30T12:34:45.450Z,8.06
2023-12-30T12:35:45.394Z,8.06
2023-12-30T12:36:45.370Z,8.04
2023-12-30T12:37:45.361Z,8.03
2023-12-30T12:38:45.347Z,8.04
2023-12-30T12:39:45.344Z,8.06
2023-12-30T12:40:45.437Z,8.07
2023-12-30T12:41:45.292Z,8.09
2023-12-30T12:42:45.300Z,8.09
2023-12-30T12:43:45.348Z,8.07
2023-12-30T12:44:45.289Z,8.07
2023-12-30T12:45:45.275Z,8.10
2023-12-30T12:46:45.283Z,8.12
2023-12-30T12:47:45.254Z,8.10
2023-12-30T12:48:45.353Z,8.12
2023-12-30T12:49:45.280Z,8.12
2023-12-30T12:50:45.221Z,8.10
2023-12-30T12:51:45.208Z,8.14
2023-12-30T12:52:45.213Z,8.18
2023-12-30T12:53:45.191Z,8.18
2023-12-30T12:54:45.161Z,8.21
2023-12-30T12:55:45.248Z,8.22
2023-12-30T12:56:45.169Z,8.24
2023-12-30T12:57:45.115Z,8.27
2023-12-30T12:58:45.119Z,8.27
2023-12-30T12:59:45.146Z,8.27
2023-12-30T13:00:45.157Z,8.25
2023-12-30T13:01:45.131Z,8.28
2023-12-30T13:02:45.072Z,8.27
2023-12-30T13:03:45.099Z,8.25
2023-12-30T13:04:45.126Z,8.27
2023-12-30T13:05:45.037Z,8.25
2023-12-30T13:06:45.044Z,8.27
2023-12-30T13:07:45.142Z,8.27
2023-12-30T13:08:45.001Z,8.25
2023-12-30T13:09:44.969Z,8.25
2023-12-30T13:10:45.028Z,8.28
2023-12-30T13:11:44.984Z,8.29
2023-12-30T13:12:44.947Z,8.28
2023-12-30T13:13:44.955Z,8.28
2023-12-30T13:14:45.115Z,8.28
2023-12-30T13:15:44.904Z,8.28
2023-12-30T13:16:44.957Z,8.28
2023-12-30T13:17:44.883Z,8.29
2023-12-30T13:18:44.941Z,8.27